Piedmont, California
Current Conditions -  °F | °C
As of 11:53 PM on Friday 28 Nov 2014 (Local Time) from KOAK Reporting Station
Light Rain Light Rain  
Wind Chill: 55°   Ceiling: 1800
Heat Index: 55°   Visibility: 10mi
Dew Point: 50°   Wind: 9mph
Humidity: 83%   Direction: 140°SE
Pressure: 29.87"   Gusts: NA
Location:  37.82°N, 122.23°W
Report Text: KOAK 290753Z 14008KT 10SM -RA FEW010 OVC018 13/10 A2987 RMK AO2 RAB03E17B40 SLP113 P0000 T01280100 401670056
Loading
Personal Weather Stations






























Interactive Weather Map New forecast layout! Learn more

10-Day Weather Forecast

Advertisements
Track Severe Weather on mobile